Time;durP1;ratioP1;P1;durP2;ratioP2;P2;SDS_P1;SDS_P2;PMS_P1;PMS_P2;Temp;Humidity;BMP_temperature;BMP_pressure;BME280_temperature;BME280_humidity;BME280_pressure;Samples;Min_cycle;Max_cycle;Signal;HPM_P1;HPM_P2
2023/02/03 00:00:45;;;;;;;2.43;2.20;;;3.60;99.90;;;;;;5129281;27;20679;-74
2023/02/03 00:03:12;;;;;;;6.53;2.57;;;3.60;99.90;;;;;;5128727;27;20661;-73
2023/02/03 00:05:40;;;;;;;8.10;3.13;;;3.70;99.90;;;;;;5117176;27;20638;-72
2023/02/03 00:08:09;;;;;;;6.93;2.90;;;3.70;99.90;;;;;;5108441;28;20320;-73
2023/02/03 00:10:38;;;;;;;6.63;2.30;;;3.70;99.90;;;;;;5122760;28;20264;-73
2023/02/03 00:13:06;;;;;;;6.13;2.70;;;3.70;99.90;;;;;;5128704;28;20300;-73
2023/02/03 00:15:33;;;;;;;3.73;2.50;;;3.70;99.90;;;;;;5128964;28;20194;-75
2023/02/03 00:18:00;;;;;;;5.47;2.37;;;3.70;99.90;;;;;;5128834;27;20211;-74
2023/02/03 00:20:27;;;;;;;7.03;2.63;;;3.70;99.90;;;;;;5125997;28;21015;-73
2023/02/03 00:22:54;;;;;;;4.53;2.37;;;3.80;99.90;;;;;;5112331;27;20309;-73
2023/02/03 00:25:22;;;;;;;8.73;2.20;;;3.80;99.90;;;;;;5108435;28;20300;-74
2023/02/03 00:27:49;;;;;;;4.67;2.97;;;3.80;99.90;;;;;;5108155;28;20297;-73
2023/02/03 00:30:16;;;;;;;5.90;3.40;;;3.90;99.90;;;;;;5118341;28;20319;-73
2023/02/03 00:32:42;;;;;;;7.03;3.57;;;3.90;99.90;;;;;;5111488;28;20289;-73
2023/02/03 00:35:09;;;;;;;8.00;3.87;;;3.90;99.90;;;;;;5128728;28;20281;-73
2023/02/03 00:37:36;;;;;;;8.57;3.90;;;3.90;99.90;;;;;;5128726;28;20288;-73
2023/02/03 00:40:03;;;;;;;6.37;4.20;;;3.90;99.90;;;;;;5139981;27;20307;-73
2023/02/03 00:42:32;;;;;;;8.70;4.00;;;3.90;99.90;;;;;;5138535;27;20258;-73
2023/02/03 00:44:58;;;;;;;6.97;3.53;;;3.90;99.90;;;;;;5133155;27;20628;-73
2023/02/03 00:47:25;;;;;;;5.27;3.27;;;3.90;99.90;;;;;;5132487;27;20211;-73
2023/02/03 00:49:52;;;;;;;7.27;3.70;;;3.90;99.90;;;;;;5127309;27;20253;-73
2023/02/03 00:52:19;;;;;;;8.50;3.47;;;3.90;99.90;;;;;;5117091;27;20206;-73
2023/02/03 00:54:46;;;;;;;7.40;3.47;;;3.90;99.90;;;;;;5111661;28;20567;-73
2023/02/03 00:57:13;;;;;;;7.00;3.37;;;3.90;99.90;;;;;;5112156;28;20296;-73
2023/02/03 00:59:41;;;;;;;9.30;3.53;;;3.90;99.90;;;;;;5111615;28;20329;-74
2023/02/03 01:02:08;;;;;;;7.83;3.57;;;3.90;99.90;;;;;;5116857;27;20281;-73
2023/02/03 01:04:35;;;;;;;6.40;3.33;;;3.90;99.90;;;;;;5132297;27;20289;-73
2023/02/03 01:07:01;;;;;;;7.20;3.10;;;3.90;99.90;;;;;;5132585;27;20293;-73
2023/02/03 01:09:28;;;;;;;8.67;3.30;;;3.90;99.90;;;;;;5134692;27;20284;-74
2023/02/03 01:11:55;;;;;;;7.50;3.07;;;3.90;99.90;;;;;;5148354;27;20201;-74
2023/02/03 01:14:22;;;;;;;4.73;3.43;;;3.90;99.90;;;;;;5119938;27;20201;-74
2023/02/03 01:16:50;;;;;;;7.33;3.50;;;3.80;99.90;;;;;;5153196;27;20283;-74
2023/02/03 01:19:17;;;;;;;7.73;3.07;;;3.90;99.90;;;;;;5153392;27;20303;-74
2023/02/03 01:21:44;;;;;;;6.20;3.23;;;3.80;99.90;;;;;;5152183;27;20251;-74
2023/02/03 01:24:13;;;;;;;6.90;3.17;;;3.90;99.90;;;;;;5152959;27;20225;-75
2023/02/03 01:26:40;;;;;;;6.57;3.33;;;3.70;99.90;;;;;;5152270;27;20209;-74
2023/02/03 01:29:08;;;;;;;5.43;3.23;;;3.70;99.90;;;;;;5116041;27;20292;-74
2023/02/03 01:31:38;;;;;;;3.00;2.80;;;3.60;99.90;;;;;;5111711;28;20268;-74
2023/02/03 01:34:07;;;;;;;5.63;3.37;;;3.50;99.90;;;;;;5132350;27;20698;-72
2023/02/03 01:36:35;;;;;;;9.27;3.40;;;3.40;99.90;;;;;;5132127;27;20229;-72
2023/02/03 01:39:03;;;;;;;5.80;3.60;;;3.40;99.90;;;;;;5131779;27;20205;-72
2023/02/03 01:41:32;;;;;;;6.10;3.30;;;3.40;99.90;;;;;;5111588;27;20206;-72
2023/02/03 01:44:00;;;;;;;5.03;3.07;;;3.30;99.90;;;;;;5130582;27;20305;-72
2023/02/03 01:46:33;;;;;;;4.17;3.17;;;3.30;99.90;;;;;;5131714;27;20637;-71
2023/02/03 01:49:06;;;;;;;5.00;3.07;;;3.30;99.90;;;;;;5131383;27;20261;-72
2023/02/03 01:51:36;;;;;;;3.33;3.00;;;3.30;99.90;;;;;;5130680;27;20661;-72
2023/02/03 01:54:04;;;;;;;5.90;3.37;;;3.40;99.90;;;;;;5111887;27;20233;-72
2023/02/03 01:56:35;;;;;;;6.03;2.87;;;3.40;99.90;;;;;;5110769;28;20225;-72
2023/02/03 01:59:02;;;;;;;8.07;3.17;;;3.50;99.90;;;;;;5110660;28;20349;-72
2023/02/03 02:01:30;;;;;;;3.30;2.50;;;3.40;99.90;;;;;;5110529;28;20220;-72
2023/02/03 02:03:59;;;;;;;3.37;2.97;;;3.30;99.90;;;;;;5121628;27;20290;-72
2023/02/03 02:06:26;;;;;;;3.97;2.87;;;3.40;99.90;;;;;;5121150;27;20295;-72
2023/02/03 02:08:58;;;;;;;3.63;2.70;;;3.40;99.90;;;;;;5130911;27;20210;-72
2023/02/03 02:11:25;;;;;;;3.13;2.57;;;3.40;99.90;;;;;;5129669;27;20576;-72
2023/02/03 02:13:55;;;;;;;3.00;2.33;;;3.40;99.90;;;;;;5116424;27;20230;-72
2023/02/03 02:16:36;;;;;;;3.13;2.50;;;3.50;99.90;;;;;;5110176;28;20270;-71
2023/02/03 02:19:32;;;;;;;2.40;2.20;;;3.40;99.90;;;;;;5110254;28;20281;-71
2023/02/03 02:22:08;;;;;;;3.67;1.97;;;3.40;99.90;;;;;;5121141;27;20304;-71
2023/02/03 02:25:04;;;;;;;2.73;2.00;;;3.30;99.90;;;;;;5124442;27;20272;-72
2023/02/03 02:28:09;;;;;;;2.77;2.20;;;3.30;99.90;;;;;;5110294;28;20190;-72
2023/02/03 02:31:13;;;;;;;1.90;1.70;;;3.40;99.90;;;;;;5110252;27;20213;-72
2023/02/03 02:33:52;;;;;;;3.03;1.80;;;3.40;99.90;;;;;;5110086;28;20280;-72
2023/02/03 02:36:27;;;;;;;2.13;1.93;;;3.50;99.90;;;;;;5109855;28;20197;-71
2023/02/03 02:38:59;;;;;;;2.37;2.20;;;3.50;99.90;;;;;;5109921;28;20285;-72
2023/02/03 02:41:31;;;;;;;2.30;2.10;;;3.50;99.90;;;;;;5114443;27;20636;-72
2023/02/03 02:44:01;;;;;;;2.10;1.90;;;3.60;99.90;;;;;;5120661;27;20281;-72
2023/02/03 02:46:33;;;;;;;2.50;2.03;;;3.50;99.90;;;;;;5109779;28;20290;-74
2023/02/03 02:52:24;;;;;;;1.93;1.83;;;3.50;99.90;;;;;;5117899;27;20244;-73
2023/02/03 02:54:56;;;;;;;2.20;2.10;;;3.50;99.90;;;;;;5109490;28;20694;-74
2023/02/03 02:57:25;;;;;;;2.40;2.17;;;3.60;99.90;;;;;;5139218;27;20192;-74
2023/02/03 02:59:54;;;;;;;2.40;2.20;;;3.60;99.90;;;;;;5150893;27;20249;-74
2023/02/03 03:02:20;;;;;;;2.10;2.00;;;3.50;99.90;;;;;;5135086;27;20198;-74
2023/02/03 03:04:50;;;;;;;3.17;2.03;;;3.40;99.90;;;;;;5130440;27;20201;-72
2023/02/03 03:07:21;;;;;;;2.30;2.10;;;3.40;99.90;;;;;;5129242;27;20284;-72
2023/02/03 03:09:52;;;;;;;2.30;2.10;;;3.50;99.90;;;;;;5135253;27;20321;-72
2023/02/03 03:12:24;;;;;;;2.23;2.13;;;3.40;99.90;;;;;;5151065;27;20239;-72
2023/02/03 03:14:58;;;;;;;2.23;2.10;;;3.50;99.90;;;;;;5151195;27;20189;-72
2023/02/03 03:17:28;;;;;;;3.23;2.10;;;3.50;99.90;;;;;;5131778;27;20272;-75
2023/02/03 03:19:57;;;;;;;2.23;2.13;;;3.50;99.90;;;;;;5129444;27;20288;-75
2023/02/03 03:22:28;;;;;;;2.07;1.97;;;3.50;99.90;;;;;;5128805;27;20344;-72
2023/02/03 03:25:03;;;;;;;1.70;1.60;;;3.50;99.90;;;;;;5129323;27;20288;-72
2023/02/03 03:27:34;;;;;;;2.10;1.80;;;3.50;99.90;;;;;;5122775;27;20205;-72
2023/02/03 03:30:05;;;;;;;1.80;1.70;;;3.40;99.90;;;;;;5119569;27;20301;-72
2023/02/03 03:32:33;;;;;;;1.77;1.67;;;3.40;99.90;;;;;;5107289;27;20636;-72
2023/02/03 03:35:01;;;;;;;1.87;1.73;;;3.30;99.90;;;;;;5127147;27;20774;-72
2023/02/03 03:37:33;;;;;;;1.80;1.70;;;3.40;99.90;;;;;;5126734;27;20324;-72
2023/02/03 03:40:07;;;;;;;2.50;1.90;;;3.40;99.90;;;;;;5133947;27;20192;-72
2023/02/03 03:42:38;;;;;;;1.80;1.70;;;3.50;99.90;;;;;;5122687;27;20555;-72
2023/02/03 03:45:10;;;;;;;2.20;2.10;;;3.50;99.90;;;;;;5107203;27;20249;-72
2023/02/03 03:47:43;;;;;;;1.83;1.73;;;3.50;99.90;;;;;;5126262;27;20309;-72
2023/02/03 03:50:15;;;;;;;1.80;1.70;;;3.50;99.90;;;;;;5126747;27;20292;-72
2023/02/03 03:52:43;;;;;;;2.00;1.90;;;3.50;99.90;;;;;;5126970;27;20197;-71
2023/02/03 03:55:14;;;;;;;1.87;1.73;;;3.50;99.90;;;;;;5127237;27;20204;-72
2023/02/03 03:57:45;;;;;;;2.20;2.10;;;3.50;99.90;;;;;;5124749;27;20235;-71
2023/02/03 04:00:17;;;;;;;2.20;2.10;;;3.50;99.90;;;;;;5125103;27;20277;-72
2023/02/03 04:02:50;;;;;;;2.30;2.20;;;3.40;99.90;;;;;;5113363;27;20197;-72
2023/02/03 04:05:17;;;;;;;2.37;2.13;;;3.40;99.90;;;;;;5107349;27;20217;-72
2023/02/03 04:07:46;;;;;;;2.67;2.57;;;3.50;99.90;;;;;;5106616;28;20297;-72
2023/02/03 04:10:23;;;;;;;2.27;2.17;;;3.50;99.90;;;;;;5115997;27;20237;-72
2023/02/03 04:12:49;;;;;;;2.80;2.60;;;3.50;99.90;;;;;;5128927;27;20276;-72
2023/02/03 04:15:17;;;;;;;2.67;2.57;;;3.60;99.90;;;;;;5135016;27;20204;-72
2023/02/03 04:17:44;;;;;;;3.23;3.03;;;3.60;99.90;;;;;;5134739;27;20208;-72
2023/02/03 04:20:12;;;;;;;3.77;3.47;;;3.60;99.90;;;;;;5135086;27;20241;-72
2023/02/03 04:22:39;;;;;;;3.40;3.20;;;3.60;99.90;;;;;;5134584;27;20551;-72
2023/02/03 04:25:06;;;;;;;3.97;3.67;;;3.60;99.90;;;;;;5135161;27;20282;-72
2023/02/03 04:27:35;;;;;;;4.47;4.13;;;3.70;99.90;;;;;;5134969;27;20205;-72
2023/02/03 04:30:02;;;;;;;4.37;4.07;;;3.70;99.90;;;;;;5126727;27;20189;-72
2023/02/03 04:32:29;;;;;;;4.77;4.37;;;3.80;99.90;;;;;;5114516;28;20229;-72
2023/02/03 04:34:56;;;;;;;4.80;4.40;;;3.80;99.90;;;;;;5114716;28;20208;-72
2023/02/03 04:37:25;;;;;;;5.77;5.37;;;3.90;99.90;;;;;;5114393;28;20206;-72
2023/02/03 04:39:52;;;;;;;6.97;6.27;;;3.90;99.90;;;;;;5120182;27;20296;-72
2023/02/03 04:42:19;;;;;;;7.10;6.47;;;4.00;99.90;;;;;;5134960;27;20211;-72
2023/02/03 04:44:47;;;;;;;7.30;6.60;;;4.10;99.90;;;;;;5134741;27;20300;-72
2023/02/03 04:47:14;;;;;;;7.73;7.03;;;4.20;99.90;;;;;;5135181;27;20205;-72
2023/02/03 04:49:41;;;;;;;9.33;7.93;;;4.30;99.90;;;;;;5134865;27;20294;-72
2023/02/03 04:52:08;;;;;;;9.63;8.37;;;4.40;99.90;;;;;;5134378;27;20655;-72
2023/02/03 04:54:35;;;;;;;12.07;8.57;;;4.50;99.90;;;;;;5134666;27;20329;-72
2023/02/03 04:57:02;;;;;;;9.40;8.40;;;4.50;99.90;;;;;;5134649;27;20726;-72
2023/02/03 04:59:29;;;;;;;10.47;9.17;;;4.60;99.90;;;;;;5137012;27;20309;-72
2023/02/03 05:01:58;;;;;;;11.57;9.83;;;4.60;99.90;;;;;;5155625;27;20197;-72
2023/02/03 05:04:25;;;;;;;12.50;10.00;;;4.70;99.90;;;;;;5155582;27;20240;-72
2023/02/03 05:06:52;;;;;;;14.10;11.00;;;4.70;99.90;;;;;;5155532;27;20200;-72
2023/02/03 05:09:18;;;;;;;12.43;10.00;;;4.80;99.90;;;;;;5154492;27;20295;-72
2023/02/03 05:11:45;;;;;;;14.17;11.33;;;4.90;99.90;;;;;;5134670;27;20666;-72
2023/02/03 05:14:12;;;;;;;15.10;11.27;;;4.90;99.90;;;;;;5134709;27;20569;-72
2023/02/03 05:16:39;;;;;;;18.07;12.10;;;5.00;99.90;;;;;;5134395;27;20296;-72
2023/02/03 05:19:08;;;;;;;19.97;13.13;;;5.00;99.90;;;;;;5134707;27;20609;-72
2023/02/03 05:21:34;;;;;;;16.97;12.53;;;5.10;99.90;;;;;;5134720;27;20236;-72
2023/02/03 05:24:02;;;;;;;22.47;14.40;;;5.20;99.90;;;;;;5134062;27;20211;-72
2023/02/03 05:26:29;;;;;;;20.33;14.73;;;5.30;99.90;;;;;;5129876;27;20216;-72
2023/02/03 05:28:56;;;;;;;20.07;14.57;;;5.30;99.90;;;;;;5131217;27;20656;-72
2023/02/03 05:31:29;;;;;;;23.10;16.40;;;5.50;99.90;;;;;;5111852;27;20214;-72
2023/02/03 05:33:56;;;;;;;22.17;16.00;;;5.50;99.90;;;;;;5110914;28;20193;-71
2023/02/03 05:36:24;;;;;;;21.93;15.60;;;5.70;99.90;;;;;;5110842;28;20288;-72
2023/02/03 05:38:51;;;;;;;24.17;15.03;;;5.70;99.90;;;;;;5110237;28;20301;-72
2023/02/03 05:44:02;;;;;;;23.70;16.40;;;5.70;99.90;;;;;;5131286;27;20184;-72
2023/02/03 05:46:29;;;;;;;21.77;15.80;;;5.80;99.90;;;;;;5131036;27;20301;-75
2023/02/03 05:48:56;;;;;;;24.20;15.97;;;5.90;99.90;;;;;;5131326;27;20648;-72
2023/02/03 05:51:24;;;;;;;22.90;15.57;;;5.90;99.90;;;;;;5131145;27;20229;-72
2023/02/03 05:53:52;;;;;;;22.73;17.00;;;5.90;99.90;;;;;;5130925;27;20202;-72
2023/02/03 05:56:19;;;;;;;25.10;16.77;;;6.00;99.90;;;;;;5130255;27;20205;-72
2023/02/03 05:58:46;;;;;;;22.57;16.20;;;6.00;99.90;;;;;;5130757;27;20611;-72
2023/02/03 06:01:13;;;;;;;27.73;16.50;;;6.00;99.90;;;;;;5128041;27;20514;-72
2023/02/03 06:03:40;;;;;;;25.93;16.43;;;6.00;99.90;;;;;;5129633;27;20236;-72
2023/02/03 06:06:07;;;;;;;23.50;16.77;;;6.10;99.90;;;;;;5131280;27;20226;-72
2023/02/03 06:08:35;;;;;;;24.43;17.10;;;6.10;99.90;;;;;;5130168;27;20213;-72
2023/02/03 06:11:02;;;;;;;24.80;16.00;;;6.10;99.90;;;;;;5130307;27;20322;-72
2023/02/03 06:13:29;;;;;;;24.80;17.10;;;6.10;99.90;;;;;;5130847;27;20281;-72
2023/02/03 06:15:56;;;;;;;22.53;16.13;;;6.20;99.90;;;;;;5130811;27;20202;-71
2023/02/03 06:18:23;;;;;;;21.37;15.97;;;6.20;99.90;;;;;;5130336;27;20205;-72
2023/02/03 06:20:52;;;;;;;24.13;16.60;;;6.30;99.90;;;;;;5129773;27;20711;-72
2023/02/03 06:23:18;;;;;;;28.77;17.30;;;6.30;99.90;;;;;;5130164;27;20304;-72
2023/02/03 06:25:48;;;;;;;24.43;16.13;;;6.30;99.90;;;;;;5129776;27;20719;-72
2023/02/03 06:28:15;;;;;;;21.17;16.00;;;6.30;99.90;;;;;;5130702;27;20286;-72
2023/02/03 06:30:42;;;;;;;26.30;16.97;;;6.30;99.90;;;;;;5116355;27;20251;-72
2023/02/03 06:33:09;;;;;;;25.60;16.13;;;6.30;99.90;;;;;;5109456;28;20898;-72
2023/02/03 06:35:36;;;;;;;21.70;16.23;;;6.40;99.90;;;;;;5109655;28;20209;-72
2023/02/03 06:38:03;;;;;;;24.93;16.53;;;6.40;99.90;;;;;;5109140;28;20727;-72
2023/02/03 06:40:32;;;;;;;22.43;16.10;;;6.40;99.90;;;;;;5109242;28;20669;-72
2023/02/03 06:43:00;;;;;;;23.37;15.90;;;6.40;99.90;;;;;;5109739;28;20209;-72
2023/02/03 06:45:27;;;;;;;25.20;15.80;;;6.50;99.90;;;;;;5109312;28;20208;-72
2023/02/03 06:47:54;;;;;;;21.10;15.50;;;6.50;99.90;;;;;;5109555;28;20602;-72
2023/02/03 06:50:21;;;;;;;20.43;15.50;;;6.50;99.90;;;;;;5109649;28;20289;-72
2023/02/03 06:52:49;;;;;;;22.17;15.27;;;6.60;99.90;;;;;;5108655;28;20261;-72
2023/02/03 06:55:16;;;;;;;22.93;15.60;;;6.60;99.90;;;;;;5109427;28;20305;-72
2023/02/03 06:57:44;;;;;;;22.13;15.63;;;6.60;99.90;;;;;;5108915;28;20210;-72
2023/02/03 07:00:14;;;;;;;19.90;14.63;;;6.60;99.90;;;;;;5109276;28;20305;-72
2023/02/03 07:02:40;;;;;;;17.20;13.73;;;6.70;99.90;;;;;;5108946;28;20281;-72
2023/02/03 07:05:08;;;;;;;24.93;14.67;;;6.70;99.90;;;;;;5109351;28;20285;-72
2023/02/03 07:07:35;;;;;;;19.40;14.77;;;6.70;99.90;;;;;;5108808;28;20293;-72
2023/02/03 07:10:02;;;;;;;20.80;15.17;;;6.80;99.90;;;;;;5115985;27;20237;-72
2023/02/03 07:12:29;;;;;;;20.07;15.20;;;6.80;99.90;;;;;;5129347;27;20319;-72
2023/02/03 07:14:55;;;;;;;19.03;14.63;;;6.80;99.90;;;;;;5129456;27;20236;-72
2023/02/03 07:17:24;;;;;;;21.60;15.27;;;6.80;99.90;;;;;;5129453;27;20205;-72
2023/02/03 07:19:51;;;;;;;18.87;14.60;;;6.80;99.90;;;;;;5129225;27;20205;-72
2023/02/03 07:22:17;;;;;;;20.40;14.43;;;6.80;99.90;;;;;;5128822;27;20242;-72
2023/02/03 07:24:44;;;;;;;19.07;14.37;;;6.80;99.90;;;;;;5128953;27;20679;-72
2023/02/03 07:27:11;;;;;;;19.37;13.77;;;6.80;99.90;;;;;;5129283;27;20269;-72
2023/02/03 07:29:38;;;;;;;17.70;13.67;;;6.90;99.90;;;;;;5124468;27;20194;-72
2023/02/03 07:32:05;;;;;;;16.77;13.57;;;6.90;99.90;;;;;;5108575;28;20316;-72
2023/02/03 07:34:33;;;;;;;17.17;14.33;;;6.90;99.90;;;;;;5108499;28;20209;-72
2023/02/03 07:37:00;;;;;;;16.30;13.03;;;6.90;99.90;;;;;;5107917;28;20699;-72
2023/02/03 07:39:27;;;;;;;15.30;12.70;;;6.90;99.90;;;;;;5108293;28;20672;-72
2023/02/03 07:41:54;;;;;;;16.63;13.87;;;7.00;99.90;;;;;;5108109;28;20301;-71
2023/02/03 07:44:21;;;;;;;16.67;12.43;;;6.90;99.90;;;;;;5108473;28;20297;-72
2023/02/03 07:46:48;;;;;;;14.77;12.03;;;6.90;99.90;;;;;;5108072;28;20208;-72
2023/02/03 07:49:15;;;;;;;15.23;12.50;;;7.00;99.90;;;;;;5119202;27;20292;-72
2023/02/03 07:51:43;;;;;;;16.13;12.80;;;6.90;99.90;;;;;;5128633;27;20292;-72
2023/02/03 07:54:10;;;;;;;17.70;12.57;;;7.00;99.90;;;;;;5128883;27;20296;-72
2023/02/03 07:56:37;;;;;;;16.93;11.93;;;7.00;99.90;;;;;;5128200;27;20737;-72
2023/02/03 07:59:04;;;;;;;16.60;12.07;;;6.90;99.90;;;;;;5128790;27;20675;-72
2023/02/03 08:01:32;;;;;;;14.90;11.77;;;6.90;99.90;;;;;;5128338;27;20663;-72
2023/02/03 08:04:00;;;;;;;14.37;11.93;;;6.90;99.90;;;;;;5128887;27;20254;-72
2023/02/03 08:06:29;;;;;;;13.47;10.93;;;6.90;99.90;;;;;;5128314;27;20254;-72
2023/02/03 08:08:57;;;;;;;12.23;10.83;;;7.00;99.90;;;;;;5128143;27;20210;-72
2023/02/03 08:11:24;;;;;;;12.07;10.80;;;6.90;99.90;;;;;;5128505;27;20296;-72
2023/02/03 08:13:51;;;;;;;12.60;10.70;;;6.90;99.90;;;;;;5128698;28;20229;-72
2023/02/03 08:16:18;;;;;;;11.83;10.23;;;6.90;99.90;;;;;;5128230;28;20750;-72
2023/02/03 08:18:45;;;;;;;12.97;10.53;;;7.00;99.90;;;;;;5128615;28;20788;-72
2023/02/03 08:21:11;;;;;;;11.63;9.77;;;6.90;99.90;;;;;;5128371;28;20422;-72
2023/02/03 08:23:38;;;;;;;14.67;9.83;;;7.00;99.90;;;;;;5127875;28;20203;-72
2023/02/03 08:26:07;;;;;;;12.60;9.97;;;7.00;99.90;;;;;;5128412;28;20205;-72
2023/02/03 08:28:34;;;;;;;11.40;9.17;;;6.90;99.90;;;;;;5128105;28;20666;-72
2023/02/03 08:31:00;;;;;;;10.27;9.07;;;7.00;99.90;;;;;;5112012;28;20263;-72
2023/02/03 08:33:28;;;;;;;9.57;8.67;;;7.00;99.90;;;;;;5107606;28;20257;-71
2023/02/03 08:35:55;;;;;;;10.70;9.70;;;7.00;99.90;;;;;;5107819;28;20327;-71
2023/02/03 08:38:22;;;;;;;11.03;9.10;;;7.00;99.90;;;;;;5107562;28;20285;-71
2023/02/03 08:40:49;;;;;;;9.67;8.60;;;7.00;99.90;;;;;;5135285;27;20240;-71
2023/02/03 08:43:17;;;;;;;13.33;9.60;;;7.00;99.90;;;;;;5131359;27;20201;-71
2023/02/03 08:45:44;;;;;;;9.13;8.23;;;7.10;99.90;;;;;;5127238;27;20213;-71
2023/02/03 08:48:11;;;;;;;9.43;8.63;;;7.10;99.90;;;;;;5127596;28;20215;-71
2023/02/03 08:50:41;;;;;;;11.80;8.97;;;7.20;99.90;;;;;;5127764;28;20206;-71
2023/02/03 08:53:08;;;;;;;11.00;8.90;;;7.00;99.90;;;;;;5127591;28;20236;-71
2023/02/03 08:55:38;;;;;;;10.33;8.30;;;7.10;99.90;;;;;;5127881;28;20213;-71
2023/02/03 08:58:05;;;;;;;9.67;8.33;;;7.10;99.90;;;;;;5127763;28;20521;-71
2023/02/03 09:00:33;;;;;;;11.23;8.50;;;7.10;99.90;;;;;;5128854;27;20198;-71
2023/02/03 09:03:00;;;;;;;8.83;7.93;;;7.10;99.90;;;;;;5131964;27;20201;-71
2023/02/03 09:05:26;;;;;;;11.20;8.20;;;7.10;99.90;;;;;;5131812;27;20292;-71
2023/02/03 09:07:53;;;;;;;8.97;7.80;;;7.20;99.90;;;;;;5131790;27;20289;-71
2023/02/03 09:10:20;;;;;;;9.60;7.63;;;7.20;99.90;;;;;;5131420;27;20350;-71
2023/02/03 09:12:47;;;;;;;9.43;7.67;;;7.10;99.90;;;;;;5131627;27;20320;-71
2023/02/03 09:15:14;;;;;;;7.50;6.80;;;7.20;99.90;;;;;;5131685;27;20284;-71
2023/02/03 09:17:42;;;;;;;7.23;6.57;;;7.20;99.90;;;;;;5131171;27;20655;-71
2023/02/03 09:20:12;;;;;;;7.53;6.83;;;7.20;99.90;;;;;;5131558;27;20240;-71
2023/02/03 09:22:38;;;;;;;7.60;6.83;;;7.20;99.90;;;;;;5130995;27;20263;-71
2023/02/03 09:25:06;;;;;;;7.37;6.67;;;7.20;99.90;;;;;;5131631;27;20281;-71
2023/02/03 09:27:33;;;;;;;6.63;6.00;;;7.30;99.90;;;;;;5130816;27;20216;-71
2023/02/03 09:30:00;;;;;;;8.37;6.27;;;7.30;99.90;;;;;;5131089;27;20632;-71
2023/02/03 09:32:27;;;;;;;7.27;6.20;;;7.30;99.90;;;;;;5131062;27;20639;-71
2023/02/03 09:34:55;;;;;;;6.27;5.77;;;7.30;99.90;;;;;;5131463;27;20371;-71
2023/02/03 09:37:22;;;;;;;6.77;6.07;;;7.30;99.90;;;;;;5130815;27;20301;-71
2023/02/03 09:39:49;;;;;;;6.23;5.73;;;7.30;99.90;;;;;;5136200;27;20766;-71
2023/02/03 09:42:36;;;;;;;6.40;5.67;;;7.30;99.90;;;;;;5150741;27;20734;-71
2023/02/03 09:45:14;;;;;;;6.07;5.57;;;7.40;99.90;;;;;;5151708;27;20189;-71
2023/02/03 09:47:43;;;;;;;6.10;5.50;;;7.40;99.90;;;;;;5151667;27;20284;-71
2023/02/03 09:50:19;;;;;;;5.90;5.30;;;7.40;99.90;;;;;;5152082;27;20291;-71
2023/02/03 09:52:46;;;;;;;6.80;5.10;;;7.40;99.90;;;;;;5150997;27;20239;-71
2023/02/03 09:55:25;;;;;;;7.90;5.40;;;7.50;99.90;;;;;;5151368;27;20213;-72
2023/02/03 09:57:56;;;;;;;6.77;5.47;;;7.50;99.90;;;;;;5131956;27;20703;-71
2023/02/03 10:00:27;;;;;;;6.30;5.17;;;7.50;99.90;;;;;;5130548;27;20240;-72
2023/02/03 10:02:59;;;;;;;5.47;4.97;;;7.50;99.90;;;;;;5130623;27;20193;-71
2023/02/03 10:05:40;;;;;;;5.20;4.80;;;7.50;99.90;;;;;;5130719;27;20277;-71
2023/02/03 10:08:15;;;;;;;4.83;4.43;;;7.50;99.90;;;;;;5130353;27;20189;-71
2023/02/03 10:11:08;;;;;;;4.40;4.10;;;7.60;99.90;;;;;;5130292;27;20218;-71
2023/02/03 10:13:41;;;;;;;4.27;3.93;;;7.60;99.90;;;;;;5130396;27;20231;-71
2023/02/03 10:16:26;;;;;;;4.23;3.83;;;7.60;99.90;;;;;;5130521;27;20280;-72
2023/02/03 10:18:56;;;;;;;4.20;3.80;;;7.60;99.90;;;;;;5130500;27;20288;-71
2023/02/03 10:21:37;;;;;;;3.97;3.67;;;7.70;99.90;;;;;;5130634;27;20581;-71
2023/02/03 10:24:18;;;;;;;4.00;3.70;;;7.80;99.90;;;;;;5130431;27;20208;-71
2023/02/03 10:26:45;;;;;;;4.30;3.57;;;7.80;99.90;;;;;;5129909;27;20308;-71
2023/02/03 10:29:19;;;;;;;3.47;3.17;;;7.90;99.90;;;;;;5130131;27;20232;-71
2023/02/03 10:31:46;;;;;;;4.37;3.00;;;7.90;99.90;;;;;;5130603;27;20719;-71
2023/02/03 10:34:15;;;;;;;3.40;3.10;;;7.90;99.90;;;;;;5130257;27;20233;-71
2023/02/03 10:36:56;;;;;;;4.10;3.00;;;7.90;99.90;;;;;;5129507;27;20739;-72
2023/02/03 10:39:36;;;;;;;4.77;3.33;;;8.00;99.90;;;;;;5149321;27;20188;-71
2023/02/03 10:42:05;;;;;;;3.07;2.77;;;8.00;99.90;;;;;;5129416;27;20197;-71
2023/02/03 10:44:37;;;;;;;3.63;2.67;;;7.90;99.90;;;;;;5129848;27;20250;-71
2023/02/03 10:47:20;;;;;;;3.43;3.13;;;7.90;99.90;;;;;;5129839;27;20250;-70
2023/02/03 10:49:49;;;;;;;2.13;1.40;;;7.80;99.90;;;;;;5129542;27;20201;-71
2023/02/03 10:52:28;;;;;;;1.23;1.13;;;7.70;99.90;;;;;;5129693;27;20292;-71
2023/02/03 10:54:58;;;;;;;2.67;1.23;;;7.50;99.90;;;;;;5129612;27;20312;-71
2023/02/03 10:57:27;;;;;;;2.97;1.27;;;7.40;99.90;;;;;;5129669;27;20215;-71
2023/02/03 11:00:05;;;;;;;3.60;1.27;;;7.30;99.90;;;;;;5088998;28;20301;-71
2023/02/03 11:02:32;;;;;;;3.77;1.60;;;7.10;99.90;;;;;;5088469;28;20284;-71
2023/02/03 11:05:19;;;;;;;5.40;1.50;;;7.10;99.90;;;;;;5088759;28;20293;-71
2023/02/03 11:07:48;;;;;;;3.20;1.20;;;7.10;99.90;;;;;;5088497;28;20199;-71
2023/02/03 11:10:33;;;;;;;5.17;1.50;;;7.10;99.90;;;;;;5096926;28;20324;-70
2023/02/03 11:13:20;;;;;;;4.87;1.40;;;7.10;99.90;;;;;;5108572;28;20224;-71
2023/02/03 11:15:59;;;;;;;7.93;2.00;;;7.10;99.90;;;;;;5108234;28;20735;-71
2023/02/03 11:18:40;;;;;;;3.80;1.47;;;7.20;99.90;;;;;;5108820;28;20990;-71
2023/02/03 11:21:13;;;;;;;10.40;1.77;;;7.20;99.90;;;;;;5108475;28;20313;-71
2023/02/03 11:23:49;;;;;;;12.57;2.30;;;7.20;99.90;;;;;;5107333;28;20190;-71
2023/02/03 11:26:19;;;;;;;13.40;2.00;;;7.20;99.90;;;;;;5108833;28;20293;-71
2023/02/03 11:28:49;;;;;;;7.70;2.13;;;7.20;99.90;;;;;;5108538;28;20194;-71
2023/02/03 11:31:23;;;;;;;5.03;2.07;;;7.20;99.90;;;;;;5090298;28;20223;-70
2023/02/03 11:33:57;;;;;;;10.00;2.33;;;7.20;99.90;;;;;;5087753;28;20323;-71
2023/02/03 11:36:27;;;;;;;10.60;2.40;;;7.20;99.90;;;;;;5087905;28;20221;-71
2023/02/03 11:39:10;;;;;;;9.53;2.30;;;7.30;99.90;;;;;;5088392;28;20215;-72
2023/02/03 11:41:38;;;;;;;10.50;3.10;;;7.30;99.90;;;;;;5067989;28;20323;-72
2023/02/03 11:44:11;;;;;;;10.10;2.60;;;7.40;99.90;;;;;;5068158;28;20239;-71
2023/02/03 11:46:39;;;;;;;9.20;2.70;;;7.40;99.90;;;;;;5067665;28;20191;-72
2023/02/03 11:49:15;;;;;;;7.47;2.27;;;7.40;99.90;;;;;;5068084;28;20233;-72
2023/02/03 11:51:54;;;;;;;7.50;2.43;;;7.60;99.90;;;;;;5067926;28;20290;-72
2023/02/03 11:54:33;;;;;;;9.60;2.83;;;7.70;99.90;;;;;;5067777;28;20732;-72
2023/02/03 11:57:19;;;;;;;9.57;2.53;;;7.90;99.90;;;;;;5079009;28;20627;-72
2023/02/03 12:00:02;;;;;;;11.57;3.10;;;8.00;99.90;;;;;;5106851;28;20238;-72
2023/02/03 12:02:51;;;;;;;10.93;2.60;;;8.00;99.90;;;;;;5108078;28;20194;-72
2023/02/03 12:05:33;;;;;;;10.83;3.17;;;8.10;99.90;;;;;;5108042;28;20285;-72
2023/02/03 12:08:12;;;;;;;14.30;3.43;;;8.20;99.90;;;;;;5107798;28;20233;-72
2023/02/03 12:10:52;;;;;;;10.87;3.23;;;8.20;99.90;;;;;;5108157;28;20234;-72
2023/02/03 12:13:39;;;;;;;12.83;3.13;;;8.40;99.90;;;;;;5107892;28;20251;-72
2023/02/03 12:16:23;;;;;;;13.60;3.70;;;8.50;99.90;;;;;;5108073;28;20237;-72
2023/02/03 12:19:03;;;;;;;16.30;3.80;;;8.70;99.90;;;;;;5107983;28;20217;-72
2023/02/03 12:21:42;;;;;;;10.47;3.30;;;8.80;99.90;;;;;;5107730;28;20254;-72
2023/02/03 12:24:24;;;;;;;14.00;3.93;;;8.90;99.90;;;;;;5108495;28;20201;-72
2023/02/03 12:26:59;;;;;;;19.57;4.10;;;8.90;99.90;;;;;;5108287;28;20194;-72
2023/02/03 12:29:31;;;;;;;16.60;3.93;;;8.90;99.90;;;;;;5109750;27;25724;-72
2023/02/03 12:32:06;;;;;;;12.73;3.87;;;8.90;99.90;;;;;;5128712;27;20647;-72
2023/02/03 12:34:38;;;;;;;15.73;4.10;;;8.90;99.90;;;;;;5129634;27;20321;-72
2023/02/03 12:37:08;;;;;;;12.30;3.10;;;9.00;99.90;;;;;;5132243;27;20201;-72
2023/02/03 12:39:40;;;;;;;14.70;3.93;;;9.20;99.90;;;;;;5129441;27;20301;-72
2023/02/03 12:42:17;;;;;;;17.40;4.03;;;9.30;99.90;;;;;;5112068;28;20277;-72
2023/02/03 12:44:50;;;;;;;10.97;3.40;;;9.30;99.90;;;;;;5112168;28;20194;-72
2023/02/03 12:47:26;;;;;;;17.23;3.97;;;9.30;99.90;;;;;;5112052;28;20281;-72
2023/02/03 12:49:57;;;;;;;18.80;5.03;;;9.20;99.90;;;;;;5112217;28;20236;-72
2023/02/03 12:52:30;;;;;;;16.03;4.03;;;9.00;99.90;;;;;;5111753;28;20306;-72
2023/02/03 12:55:08;;;;;;;13.83;3.63;;;9.00;99.90;;;;;;5111985;28;20317;-72
2023/02/03 12:57:39;;;;;;;19.17;3.93;;;8.80;99.90;;;;;;5127816;27;20289;-72
2023/02/03 13:00:20;;;;;;;14.20;3.67;;;8.70;99.90;;;;;;5132344;27;20276;-72
2023/02/03 13:03:02;;;;;;;9.20;2.73;;;8.30;99.90;;;;;;5131763;27;20201;-72
2023/02/03 13:05:34;;;;;;;9.37;3.07;;;8.00;99.90;;;;;;5132039;27;20284;-72
2023/02/03 13:08:12;;;;;;;13.47;3.60;;;7.70;99.90;;;;;;5132193;27;20273;-72
2023/02/03 13:10:47;;;;;;;10.97;3.00;;;7.60;99.90;;;;;;5132302;27;20280;-72
2023/02/03 13:13:23;;;;;;;13.30;3.33;;;7.30;99.90;;;;;;5132025;27;20193;-72